Weather at Aero-Plain Airport [CLOSED]

Public forecast

Using degrees Fahrenheit for public forecast. Weather courtesy of forecast.io.

Closest aviation weather report (METAR) to Aero-Plain Airport

Closest report is Cambridge Municipal Airport, 10.2 nm (18.8 km) NNE.

2024/07/25 09:35 (retrieved 17 minutes ago)

KCBG 250935Z AUTO 00000KT 10SM CLR 11/08 A3024 RMK AO2

Closest aviation forecast (TAF) to Aero-Plain Airport

Closest forecast is Saint Cloud Regional Airport, 29.6 nm (54.7 km) WNW.

2024/07/25 06:22 (retrieved 3 hours ago)

TAF KSTC 250520Z 2506/2606 11003KT P6SM FEW200 FM251400 15008KT P6SM SKC FM260000 14005KT P6SM SKC